Time;durP1;ratioP1;P1;durP2;ratioP2;P2;SDS_P1;SDS_P2;PMS_P1;PMS_P2;Temp;Humidity;BMP_temperature;BMP_pressure;BME280_temperature;BME280_humidity;BME280_pressure;Samples;Min_cycle;Max_cycle;Signal;HPM_P1;HPM_P2
2024/03/14 00:04:26;;;;;;;1.42;1.23;;;;;;;;;;13051678;22;20033;-73
2024/03/14 00:09:30;;;;;;;1.33;1.23;;;;;;;;;;13051131;22;20031;-74
2024/03/14 00:14:35;;;;;;;1.30;1.20;;;;;;;;;;13050993;22;20053;-74
2024/03/14 00:19:38;;;;;;;2.50;1.60;;;;;;;;;;13025028;22;20023;-74
2024/03/14 00:24:42;;;;;;;2.15;1.60;;;;;;;;;;13051244;22;20026;-74
2024/03/14 00:29:46;;;;;;;1.40;1.30;;;;;;;;;;13050019;22;20450;-74
2024/03/14 00:34:50;;;;;;;1.83;1.27;;;;;;;;;;13024575;22;20373;-74
2024/03/14 00:39:53;;;;;;;1.70;1.35;;;;;;;;;;13050423;22;20019;-74
2024/03/14 00:44:57;;;;;;;2.45;1.23;;;;;;;;;;13049700;22;20030;-74
2024/03/14 00:50:01;;;;;;;2.15;1.48;;;;;;;;;;13049729;22;20014;-74
2024/03/14 00:55:07;;;;;;;1.48;1.33;;;;;;;;;;13050617;22;20472;-74
2024/03/14 01:00:11;;;;;;;1.70;1.50;;;;;;;;;;13071372;22;20389;-73
2024/03/14 01:05:15;;;;;;;2.95;1.50;;;;;;;;;;13050222;22;20055;-74
2024/03/14 01:10:19;;;;;;;2.47;1.35;;;;;;;;;;13069315;22;20688;-74
2024/03/14 01:15:22;;;;;;;3.08;1.30;;;;;;;;;;13051513;22;20400;-74
2024/03/14 01:20:26;;;;;;;1.85;1.27;;;;;;;;;;13049281;22;20022;-74
2024/03/14 01:25:29;;;;;;;1.98;1.45;;;;;;;;;;13050430;22;20023;-74
2024/03/14 01:30:33;;;;;;;1.58;1.17;;;;;;;;;;13048830;22;20019;-74
2024/03/14 01:35:36;;;;;;;1.80;1.10;;;;;;;;;;13049114;22;20255;-74
2024/03/14 01:40:40;;;;;;;1.52;1.27;;;;;;;;;;13048609;22;20083;-74
2024/03/14 01:45:43;;;;;;;1.75;1.20;;;;;;;;;;13058718;22;20023;-74
2024/03/14 01:50:47;;;;;;;2.90;1.45;;;;;;;;;;13054137;22;20067;-74
2024/03/14 01:55:51;;;;;;;1.60;1.20;;;;;;;;;;13070692;22;20387;-74
2024/03/14 02:00:54;;;;;;;2.05;1.23;;;;;;;;;;13050870;22;20600;-74
2024/03/14 02:06:00;;;;;;;1.38;1.08;;;;;;;;;;13048963;22;20080;-74
2024/03/14 02:11:04;;;;;;;0.90;0.80;;;;;;;;;;13066903;22;20117;-74
2024/03/14 02:16:08;;;;;;;2.20;1.30;;;;;;;;;;13066031;22;20257;-74
2024/03/14 02:21:12;;;;;;;1.48;1.30;;;;;;;;;;13058507;22;20392;-74
2024/03/14 02:26:16;;;;;;;1.77;1.15;;;;;;;;;;13048663;22;20033;-74
2024/03/14 02:31:19;;;;;;;2.28;1.10;;;;;;;;;;13047811;22;20397;-74
2024/03/14 02:36:23;;;;;;;1.40;1.30;;;;;;;;;;13048412;22;20023;-74
2024/03/14 02:41:28;;;;;;;9.23;3.95;;;;;;;;;;13047474;22;20026;-74
2024/03/14 02:46:31;;;;;;;6.55;3.20;;;;;;;;;;13064265;22;20034;-74
2024/03/14 02:51:35;;;;;;;3.88;2.45;;;;;;;;;;13046637;22;20022;-74
2024/03/14 02:56:39;;;;;;;4.28;2.30;;;;;;;;;;13022360;22;20030;-74
2024/03/14 03:01:42;;;;;;;3.40;2.03;;;;;;;;;;13047935;22;20079;-74
2024/03/14 03:06:48;;;;;;;2.63;1.67;;;;;;;;;;13023041;22;20120;-74
2024/03/14 03:11:52;;;;;;;2.10;1.40;;;;;;;;;;13062663;22;20084;-74
2024/03/14 03:16:56;;;;;;;2.30;1.17;;;;;;;;;;13062153;22;20128;-74
2024/03/14 03:21:59;;;;;;;1.52;1.30;;;;;;;;;;13047927;22;20019;-74
2024/03/14 03:27:13;;;;;;;2.13;1.50;;;;;;;;;;13022642;22;20022;-74
2024/03/14 03:32:16;;;;;;;2.20;1.20;;;;;;;;;;13062517;22;20109;-74
2024/03/14 03:37:21;;;;;;;2.25;1.30;;;;;;;;;;13047987;22;20119;-74
2024/03/14 03:42:25;;;;;;;1.85;1.17;;;;;;;;;;13023519;22;20030;-74
2024/03/14 03:47:30;;;;;;;1.02;0.90;;;;;;;;;;13060015;22;20355;-74
2024/03/14 03:52:33;;;;;;;1.00;0.90;;;;;;;;;;13060350;22;20034;-74
2024/03/14 03:57:38;;;;;;;1.30;1.20;;;;;;;;;;13051991;22;20446;-74
2024/03/14 04:02:42;;;;;;;0.70;0.70;;;;;;;;;;13062388;22;20098;-74
2024/03/14 04:07:45;;;;;;;2.05;1.30;;;;;;;;;;13051758;22;20531;-73
2024/03/14 04:12:49;;;;;;;3.65;1.20;;;;;;;;;;13051437;22;20023;-74
2024/03/14 04:17:54;;;;;;;1.58;1.27;;;;;;;;;;13051833;22;20080;-74
2024/03/14 04:22:58;;;;;;;1.98;1.00;;;;;;;;;;13059291;22;20026;-73
2024/03/14 04:28:02;;;;;;;2.15;1.15;;;;;;;;;;13052280;22;20069;-74
2024/03/14 04:33:07;;;;;;;2.85;0.88;;;;;;;;;;13060037;22;20074;-74
2024/03/14 04:38:10;;;;;;;1.50;1.00;;;;;;;;;;13059282;22;20103;-74
2024/03/14 04:43:14;;;;;;;1.65;0.95;;;;;;;;;;13050698;22;20093;-74
2024/03/14 04:48:17;;;;;;;1.80;1.10;;;;;;;;;;13025418;22;20481;-74
2024/03/14 04:53:21;;;;;;;1.20;1.10;;;;;;;;;;13050657;22;20351;-74
2024/03/14 04:58:24;;;;;;;1.27;0.90;;;;;;;;;;13050832;22;20102;-74
2024/03/14 05:03:30;;;;;;;0.80;0.80;;;;;;;;;;13050518;22;20019;-74
2024/03/14 05:08:33;;;;;;;1.55;0.90;;;;;;;;;;13026150;22;20031;-74
2024/03/14 05:13:37;;;;;;;2.67;1.10;;;;;;;;;;13050518;22;20497;-74
2024/03/14 05:18:40;;;;;;;1.33;1.17;;;;;;;;;;13049071;22;20441;-74
2024/03/14 05:23:44;;;;;;;1.98;1.17;;;;;;;;;;13023246;22;20027;-73
2024/03/14 05:28:48;;;;;;;1.42;1.30;;;;;;;;;;13054486;22;20015;-73
2024/03/14 05:33:51;;;;;;;1.88;1.27;;;;;;;;;;13021975;22;20027;-73
2024/03/14 05:38:55;;;;;;;2.88;1.42;;;;;;;;;;13049023;22;20400;-73
2024/03/14 05:43:58;;;;;;;2.22;1.35;;;;;;;;;;13022331;22;20038;-73
2024/03/14 05:49:03;;;;;;;4.20;1.52;;;;;;;;;;13043370;22;20033;-74
2024/03/14 05:54:06;;;;;;;1.60;1.35;;;;;;;;;;13046728;22;20097;-73
2024/03/14 05:59:10;;;;;;;1.30;1.20;;;;;;;;;;13046007;22;20099;-73
2024/03/14 06:04:13;;;;;;;1.58;1.48;;;;;;;;;;13046777;22;20041;-74
2024/03/14 06:09:17;;;;;;;1.40;1.30;;;;;;;;;;13045634;22;20026;-73
2024/03/14 06:14:23;;;;;;;1.42;1.33;;;;;;;;;;13021025;22;20029;-73
2024/03/14 06:19:26;;;;;;;1.77;1.33;;;;;;;;;;13049549;22;20094;-74
2024/03/14 06:24:30;;;;;;;1.70;1.30;;;;;;;;;;13046057;22;20057;-73
2024/03/14 06:29:33;;;;;;;1.27;1.17;;;;;;;;;;13044439;22;20464;-73
2024/03/14 06:34:37;;;;;;;1.40;1.08;;;;;;;;;;13045995;22;20508;-74
2024/03/14 06:39:41;;;;;;;2.50;1.52;;;;;;;;;;13046643;22;20093;-73
2024/03/14 06:44:45;;;;;;;1.55;1.10;;;;;;;;;;13047287;22;20477;-74
2024/03/14 06:49:49;;;;;;;1.35;1.10;;;;;;;;;;13045613;22;20098;-74
2024/03/14 06:54:53;;;;;;;1.95;1.30;;;;;;;;;;13046670;22;20053;-74
2024/03/14 06:59:56;;;;;;;2.17;1.08;;;;;;;;;;13041192;22;20050;-74
2024/03/14 07:05:00;;;;;;;1.45;1.23;;;;;;;;;;13046025;22;20114;-73
2024/03/14 07:10:08;;;;;;;1.50;1.35;;;;;;;;;;13066796;22;20021;-73
2024/03/14 07:15:12;;;;;;;1.40;1.10;;;;;;;;;;13067364;22;20411;-73
2024/03/14 07:20:24;;;;;;;2.13;1.40;;;;;;;;;;13045535;22;20083;-73
2024/03/14 07:25:28;;;;;;;2.75;1.23;;;;;;;;;;13048370;22;20042;-74
2024/03/14 07:30:34;;;;;;;2.00;1.40;;;;;;;;;;13068320;22;20094;-73
2024/03/14 07:35:44;;;;;;;2.20;1.52;;;;;;;;;;13070373;22;20102;-74
2024/03/14 07:40:48;;;;;;;1.85;1.45;;;;;;;;;;13069820;22;20089;-73
2024/03/14 07:45:52;;;;;;;1.98;1.45;;;;;;;;;;13049485;22;20022;-74
2024/03/14 07:50:58;;;;;;;3.00;1.42;;;;;;;;;;13049504;22;20015;-73
2024/03/14 07:56:02;;;;;;;2.10;1.40;;;;;;;;;;13067372;22;20098;-73
2024/03/14 08:01:09;;;;;;;1.63;1.05;;;;;;;;;;13049294;22;20365;-73
2024/03/14 08:06:14;;;;;;;2.17;1.10;;;;;;;;;;13067295;22;20644;-74
2024/03/14 08:11:21;;;;;;;1.50;1.40;;;;;;;;;;13049970;22;20046;-73
2024/03/14 08:16:25;;;;;;;2.17;1.48;;;;;;;;;;13062489;22;20027;-73
2024/03/14 08:21:29;;;;;;;1.73;1.35;;;;;;;;;;13045043;22;20093;-74
2024/03/14 08:26:33;;;;;;;2.15;1.40;;;;;;;;;;13046017;22;20497;-74
2024/03/14 08:31:37;;;;;;;2.45;1.25;;;;;;;;;;13056596;22;20049;-74
2024/03/14 08:36:41;;;;;;;3.90;2.00;;;;;;;;;;13045565;22;20093;-73
2024/03/14 08:41:45;;;;;;;3.95;1.90;;;;;;;;;;13059059;22;20027;-73
2024/03/14 08:46:49;;;;;;;3.53;2.25;;;;;;;;;;13020176;22;20098;-74
2024/03/14 08:51:53;;;;;;;4.57;3.10;;;;;;;;;;13045166;22;20019;-73
2024/03/14 08:56:58;;;;;;;4.15;2.22;;;;;;;;;;13045251;22;20057;-73
2024/03/14 09:02:01;;;;;;;4.63;2.60;;;;;;;;;;13058699;22;20022;-74
2024/03/14 09:07:06;;;;;;;8.43;4.63;;;;;;;;;;13042466;22;20038;-74
2024/03/14 09:12:13;;;;;;;7.47;3.53;;;;;;;;;;13042428;22;20023;-73
2024/03/14 09:17:17;;;;;;;4.43;2.92;;;;;;;;;;13057683;22;20030;-73
2024/03/14 09:22:22;;;;;;;4.97;3.45;;;;;;;;;;13009610;22;236472;-73
2024/03/14 09:27:25;;;;;;;6.50;3.78;;;;;;;;;;13046878;22;20106;-74
2024/03/14 09:32:30;;;;;;;9.27;5.30;;;;;;;;;;13021478;22;20525;-74
2024/03/14 09:37:33;;;;;;;7.53;3.15;;;;;;;;;;13048074;22;20019;-74
2024/03/14 09:42:38;;;;;;;5.53;3.15;;;;;;;;;;13043857;22;20025;-73
2024/03/14 09:47:41;;;;;;;4.85;3.25;;;;;;;;;;13048070;22;20023;-73
2024/03/14 09:52:45;;;;;;;3.92;2.10;;;;;;;;;;13045320;22;20454;-74
2024/03/14 09:57:51;;;;;;;3.50;2.42;;;;;;;;;;13021336;22;20101;-74
2024/03/14 10:02:55;;;;;;;;;;;;;;;;;;13047785;22;20410;-73
2024/03/14 10:08:00;;;;;;;2.20;1.80;;;;;;;;;;13072779;22;19949;-74
2024/03/14 10:13:04;;;;;;;2.27;1.90;;;;;;;;;;13054894;22;20097;-73
2024/03/14 10:18:09;;;;;;;4.45;1.85;;;;;;;;;;13046437;22;20530;-73
2024/03/14 10:23:15;;;;;;;4.22;2.35;;;;;;;;;;13040866;22;20106;-74
2024/03/14 10:28:20;;;;;;;1.85;1.45;;;;;;;;;;13047232;22;20042;-74
2024/03/14 10:33:26;;;;;;;2.97;1.50;;;;;;;;;;13045994;22;20084;-74
2024/03/14 10:38:35;;;;;;;;;;;;;;;;;;13053415;22;20022;-74
2024/03/14 10:43:40;;;;;;;2.95;1.70;;;;;;;;;;13077846;22;19922;-74
2024/03/14 10:48:45;;;;;;;2.30;1.33;;;;;;;;;;13051379;22;20027;-74
2024/03/14 10:53:50;;;;;;;2.45;1.45;;;;;;;;;;13046285;22;20015;-74
2024/03/14 10:58:54;;;;;;;1.95;1.33;;;;;;;;;;13050476;22;20027;-74
2024/03/14 11:03:58;;;;;;;2.33;1.10;;;;;;;;;;13053269;22;20382;-74
2024/03/14 11:09:06;;;;;;;4.35;1.30;;;;;;;;;;13023008;22;20134;-74
2024/03/14 11:14:11;;;;;;;4.10;2.17;;;;;;;;;;13054463;22;20023;-74
2024/03/14 11:19:16;;;;;;;3.80;1.63;;;;;;;;;;13045748;22;20034;-74
2024/03/14 11:24:21;;;;;;;2.50;1.00;;;;;;;;;;13047720;22;20023;-74
2024/03/14 11:29:24;;;;;;;1.60;0.85;;;;;;;;;;13020568;22;20457;-74
2024/03/14 11:34:27;;;;;;;1.70;0.80;;;;;;;;;;13020076;22;20029;-73
2024/03/14 11:39:31;;;;;;;3.65;1.30;;;;;;;;;;13046773;22;20034;-73
2024/03/14 11:44:34;;;;;;;1.85;1.20;;;;;;;;;;13045165;22;20050;-73
2024/03/14 11:49:39;;;;;;;3.00;0.90;;;;;;;;;;13044887;22;20361;-73
2024/03/14 11:54:42;;;;;;;2.63;0.70;;;;;;;;;;13020267;22;20094;-73
2024/03/14 11:59:46;;;;;;;1.90;0.98;;;;;;;;;;13044770;22;20050;-73
2024/03/14 12:04:50;;;;;;;1.42;0.75;;;;;;;;;;13046300;22;20663;-73
2024/03/14 12:09:53;;;;;;;1.23;1.10;;;;;;;;;;13043489;22;20814;-72
2024/03/14 12:14:58;;;;;;;1.05;0.82;;;;;;;;;;13044467;22;20019;-73
2024/03/14 12:20:05;;;;;;;1.42;1.27;;;;;;;;;;13066214;22;20428;-72
2024/03/14 12:25:09;;;;;;;0.95;0.73;;;;;;;;;;13067607;22;20060;-73
2024/03/14 12:30:15;;;;;;;0.80;0.70;;;;;;;;;;13019431;22;20027;-72
2024/03/14 12:35:18;;;;;;;1.88;1.25;;;;;;;;;;13064820;22;20045;-73
2024/03/14 12:40:21;;;;;;;1.95;1.33;;;;;;;;;;13044629;22;20018;-73
2024/03/14 12:45:26;;;;;;;1.90;1.17;;;;;;;;;;13064343;22;20072;-73
2024/03/14 12:50:29;;;;;;;2.63;1.20;;;;;;;;;;13043752;22;20049;-73
2024/03/14 12:55:33;;;;;;;2.30;1.20;;;;;;;;;;13043567;22;20098;-72
2024/03/14 13:00:37;;;;;;;0.98;0.73;;;;;;;;;;13063328;22;20046;-73
2024/03/14 13:05:43;;;;;;;1.55;0.80;;;;;;;;;;13063418;22;20248;-72
2024/03/14 13:10:46;;;;;;;1.98;1.15;;;;;;;;;;13062838;22;20488;-72
2024/03/14 13:15:52;;;;;;;0.80;0.68;;;;;;;;;;13043928;22;20026;-72
2024/03/14 13:20:56;;;;;;;0.85;0.70;;;;;;;;;;13060721;22;20461;-72
2024/03/14 13:25:59;;;;;;;1.52;0.68;;;;;;;;;;13042364;22;20029;-72
2024/03/14 13:31:03;;;;;;;1.02;0.88;;;;;;;;;;13042927;22;20133;-73
2024/03/14 13:36:09;;;;;;;0.70;0.70;;;;;;;;;;13043971;22;20551;-72
2024/03/14 13:41:13;;;;;;;1.10;0.63;;;;;;;;;;13045767;22;20026;-72
2024/03/14 13:46:20;;;;;;;0.75;0.50;;;;;;;;;;13060098;22;20027;-73
2024/03/14 13:51:23;;;;;;;1.27;0.85;;;;;;;;;;13044182;22;20403;-73
2024/03/14 13:56:28;;;;;;;1.63;0.73;;;;;;;;;;13045888;22;20053;-73
2024/03/14 14:01:33;;;;;;;1.20;0.73;;;;;;;;;;13066338;22;20030;-73
2024/03/14 14:06:37;;;;;;;0.73;0.60;;;;;;;;;;13015671;22;20026;-72
2024/03/14 14:11:41;;;;;;;2.05;0.40;;;;;;;;;;13053865;22;20022;-72
2024/03/14 14:16:45;;;;;;;1.80;0.57;;;;;;;;;;13041436;22;20072;-72
2024/03/14 14:21:48;;;;;;;1.17;0.88;;;;;;;;;;13014631;22;20042;-72
2024/03/14 14:26:52;;;;;;;2.00;0.80;;;;;;;;;;13040664;22;20038;-72
2024/03/14 14:31:56;;;;;;;1.73;0.73;;;;;;;;;;13040102;22;20553;-72
2024/03/14 14:36:59;;;;;;;1.92;0.75;;;;;;;;;;13040452;22;20408;-72
2024/03/14 14:42:03;;;;;;;1.83;1.23;;;;;;;;;;13038761;22;20054;-73
2024/03/14 14:47:06;;;;;;;2.03;1.00;;;;;;;;;;13040449;22;20019;-73
2024/03/14 14:52:10;;;;;;;2.33;1.20;;;;;;;;;;13038735;22;20109;-72
2024/03/14 14:57:14;;;;;;;1.40;1.00;;;;;;;;;;13040595;22;20050;-72
2024/03/14 15:02:19;;;;;;;2.05;0.90;;;;;;;;;;13050277;22;20038;-73
2024/03/14 15:07:23;;;;;;;0.68;0.65;;;;;;;;;;13051023;22;20553;-73
2024/03/14 15:12:26;;;;;;;7.53;3.08;;;;;;;;;;13013727;22;20111;-73
2024/03/14 15:17:31;;;;;;;2.42;1.35;;;;;;;;;;13013619;22;20027;-72
2024/03/14 15:22:35;;;;;;;1.75;1.25;;;;;;;;;;13049337;22;20050;-72
2024/03/14 15:27:38;;;;;;;1.20;0.82;;;;;;;;;;13047308;22;20048;-72
2024/03/14 15:32:43;;;;;;;2.45;1.52;;;;;;;;;;13037011;22;20470;-72
2024/03/14 15:37:46;;;;;;;1.92;1.00;;;;;;;;;;13049128;22;20742;-72
2024/03/14 15:42:50;;;;;;;3.30;1.85;;;;;;;;;;13038071;22;20061;-72
2024/03/14 15:47:54;;;;;;;1.88;1.40;;;;;;;;;;13016369;22;20395;-72
2024/03/14 15:52:58;;;;;;;2.53;1.73;;;;;;;;;;13017277;22;20106;-72
2024/03/14 15:58:02;;;;;;;2.30;1.70;;;;;;;;;;13052864;22;20102;-72
2024/03/14 16:03:08;;;;;;;3.90;2.05;;;;;;;;;;13017451;22;20109;-72
2024/03/14 16:08:11;;;;;;;4.28;2.30;;;;;;;;;;13045654;22;20395;-72
2024/03/14 16:13:16;;;;;;;3.53;2.47;;;;;;;;;;13044475;22;20034;-72
2024/03/14 16:18:19;;;;;;;3.97;2.72;;;;;;;;;;13044898;22;20019;-72
2024/03/14 16:23:23;;;;;;;6.78;3.33;;;;;;;;;;13043793;22;20019;-72
2024/03/14 16:28:28;;;;;;;3.17;2.55;;;;;;;;;;13043930;22;20026;-72
2024/03/14 16:33:33;;;;;;;2.40;1.58;;;;;;;;;;13044307;22;20137;-72
2024/03/14 16:38:37;;;;;;;3.35;1.80;;;;;;;;;;13050678;22;20072;-72
2024/03/14 16:43:41;;;;;;;1.88;1.58;;;;;;;;;;13049692;22;20027;-72
2024/03/14 16:48:45;;;;;;;2.10;1.85;;;;;;;;;;13042898;22;20022;-72
2024/03/14 16:53:48;;;;;;;3.25;2.40;;;;;;;;;;13043777;22;20405;-72
2024/03/14 16:58:52;;;;;;;5.13;3.25;;;;;;;;;;13013213;22;20109;-72
2024/03/14 17:03:57;;;;;;;4.15;2.72;;;;;;;;;;13038899;22;20109;-72
2024/03/14 17:09:04;;;;;;;4.70;2.80;;;;;;;;;;13042775;22;20484;-72
2024/03/14 17:14:08;;;;;;;3.00;2.67;;;;;;;;;;13048892;22;20046;-72
2024/03/14 17:19:12;;;;;;;4.43;3.47;;;;;;;;;;13042368;22;20019;-73
2024/03/14 17:24:15;;;;;;;4.72;3.00;;;;;;;;;;13045089;22;20019;-72
2024/03/14 17:29:19;;;;;;;5.53;4.20;;;;;;;;;;13044993;22;20354;-72
2024/03/14 17:34:22;;;;;;;3.95;3.53;;;;;;;;;;13020099;22;20022;-73
2024/03/14 17:39:26;;;;;;;3.65;3.33;;;;;;;;;;13043096;22;20030;-72
2024/03/14 17:44:32;;;;;;;4.07;3.35;;;;;;;;;;13042562;22;20065;-73
2024/03/14 17:49:37;;;;;;;4.63;4.07;;;;;;;;;;13044450;22;20105;-73
2024/03/14 17:54:40;;;;;;;5.80;3.95;;;;;;;;;;13046971;22;20023;-72
2024/03/14 17:59:44;;;;;;;5.97;3.47;;;;;;;;;;13045175;22;20077;-73
2024/03/14 18:04:48;;;;;;;5.50;3.70;;;;;;;;;;13045780;22;20045;-73
2024/03/14 18:09:51;;;;;;;4.90;3.90;;;;;;;;;;13043809;22;20026;-73
2024/03/14 18:14:55;;;;;;;5.07;4.10;;;;;;;;;;13043947;22;20022;-72
2024/03/14 18:19:58;;;;;;;4.65;4.15;;;;;;;;;;13043573;22;20023;-73
2024/03/14 18:25:01;;;;;;;5.63;4.55;;;;;;;;;;13018509;22;20019;-72
2024/03/14 18:30:12;;;;;;;5.07;3.72;;;;;;;;;;13043822;22;20735;-72
2024/03/14 18:35:17;;;;;;;6.05;4.75;;;;;;;;;;13066735;22;20027;-73
2024/03/14 18:40:24;;;;;;;6.40;4.63;;;;;;;;;;13063047;22;20039;-73
2024/03/14 18:45:29;;;;;;;4.75;4.10;;;;;;;;;;13062048;22;20023;-73
2024/03/14 18:50:33;;;;;;;5.97;4.20;;;;;;;;;;13062592;22;20019;-73
2024/03/14 18:55:40;;;;;;;5.57;4.32;;;;;;;;;;12996312;22;20187;-73
2024/03/14 19:17:42;;;;;;;;;;;;;;;;;;;;;
2024/03/14 19:22:47;;;;;;;3.65;3.28;;;;;;;;;;10508619;27;20060;-72
2024/03/14 19:27:53;;;;;;;3.33;2.88;;;;;;;;;;10520005;27;20052;-72
2024/03/14 19:32:56;;;;;;;2.78;2.47;;;;;;;;;;10517198;27;20126;-72
2024/03/14 19:38:00;;;;;;;2.75;2.53;;;;;;;;;;10549300;27;20450;-73
2024/03/14 19:43:04;;;;;;;2.95;2.30;;;;;;;;;;10554898;27;20039;-73
2024/03/14 19:48:08;;;;;;;3.28;2.65;;;;;;;;;;10550003;27;20044;-72
2024/03/14 19:53:11;;;;;;;4.90;2.15;;;;;;;;;;10552485;27;20137;-72
2024/03/14 19:58:15;;;;;;;3.42;2.67;;;;;;;;;;10530887;28;20040;-72
2024/03/14 20:03:22;;;;;;;3.42;2.70;;;;;;;;;;10532736;28;20676;-72
2024/03/14 20:08:27;;;;;;;3.13;2.70;;;;;;;;;;10531867;28;20147;-73
2024/03/14 20:13:31;;;;;;;3.05;2.40;;;;;;;;;;10530800;28;20542;-72
2024/03/14 20:18:34;;;;;;;2.75;2.35;;;;;;;;;;10518099;28;20045;-72
2024/03/14 20:23:38;;;;;;;2.50;2.30;;;;;;;;;;10523686;28;20051;-72
2024/03/14 20:28:42;;;;;;;2.70;2.25;;;;;;;;;;10528275;28;20123;-73
2024/03/14 20:33:45;;;;;;;2.67;2.33;;;;;;;;;;10476529;28;20127;-72
2024/03/14 20:38:51;;;;;;;4.03;3.13;;;;;;;;;;10478177;28;20067;-72
2024/03/14 20:44:08;;;;;;;4.25;3.33;;;;;;;;;;10445168;28;20410;-73
2024/03/14 20:49:12;;;;;;;6.88;3.90;;;;;;;;;;10480107;28;20044;-72
2024/03/14 20:54:16;;;;;;;4.72;3.40;;;;;;;;;;10451074;28;20537;-72
2024/03/14 20:59:21;;;;;;;6.32;3.40;;;;;;;;;;10468545;28;20041;-72
2024/03/14 21:04:24;;;;;;;5.32;3.22;;;;;;;;;;10488493;28;20046;-73
2024/03/14 21:09:31;;;;;;;5.82;3.60;;;;;;;;;;10486355;28;20076;-72
2024/03/14 21:14:35;;;;;;;10.07;4.63;;;;;;;;;;10489385;28;20394;-72
2024/03/14 21:19:39;;;;;;;9.23;5.07;;;;;;;;;;10488460;28;20121;-72
2024/03/14 21:24:43;;;;;;;7.55;5.30;;;;;;;;;;10443868;28;20135;-72
2024/03/14 21:29:47;;;;;;;7.72;5.10;;;;;;;;;;10447932;28;20452;-72
2024/03/14 21:34:51;;;;;;;5.60;4.47;;;;;;;;;;10461165;28;20072;-72
2024/03/14 21:39:54;;;;;;;7.75;4.38;;;;;;;;;;10452821;28;20062;-72
2024/03/14 21:44:58;;;;;;;5.90;3.50;;;;;;;;;;10455444;28;20061;-72
2024/03/14 21:50:03;;;;;;;5.13;3.38;;;;;;;;;;10450677;28;20065;-73
2024/03/14 21:55:07;;;;;;;6.43;3.50;;;;;;;;;;10446238;28;20036;-72
2024/03/14 22:00:14;;;;;;;4.15;3.00;;;;;;;;;;10457028;28;20052;-72
2024/03/14 22:05:19;;;;;;;3.95;2.88;;;;;;;;;;10451196;28;20054;-73
2024/03/14 22:10:23;;;;;;;3.08;2.45;;;;;;;;;;10446176;28;20123;-73
2024/03/14 22:15:27;;;;;;;3.58;2.22;;;;;;;;;;10493350;28;20167;-72
2024/03/14 22:20:30;;;;;;;3.95;2.53;;;;;;;;;;10486093;28;20040;-72
2024/03/14 22:25:34;;;;;;;3.40;2.33;;;;;;;;;;10464942;28;20067;-72
2024/03/14 22:30:37;;;;;;;4.18;2.75;;;;;;;;;;10481558;28;20049;-72
2024/03/14 22:35:42;;;;;;;3.25;2.20;;;;;;;;;;10448538;28;20063;-73
2024/03/14 22:40:45;;;;;;;2.78;1.77;;;;;;;;;;10452119;28;20052;-73
2024/03/14 22:45:48;;;;;;;2.17;1.73;;;;;;;;;;10456500;28;20052;-73
2024/03/14 22:50:52;;;;;;;2.13;1.80;;;;;;;;;;10461580;28;20113;-73
2024/03/14 22:55:55;;;;;;;3.00;2.30;;;;;;;;;;10454642;28;20124;-73
2024/03/14 23:01:02;;;;;;;3.15;2.13;;;;;;;;;;10482610;28;20059;-73
2024/03/14 23:06:07;;;;;;;2.40;1.85;;;;;;;;;;10471134;28;20041;-73
2024/03/14 23:11:11;;;;;;;2.42;1.75;;;;;;;;;;10485118;28;20448;-73
2024/03/14 23:16:15;;;;;;;1.95;1.75;;;;;;;;;;10488277;28;20040;-73
2024/03/14 23:21:18;;;;;;;1.42;1.20;;;;;;;;;;10420609;22;20659;-74
2024/03/14 23:26:24;;;;;;;2.08;1.70;;;;;;;;;;10374934;28;20037;-73
2024/03/14 23:31:30;;;;;;;2.40;1.90;;;;;;;;;;10354462;28;20048;-74
2024/03/14 23:36:35;;;;;;;2.08;1.70;;;;;;;;;;10354372;28;20050;-74
2024/03/14 23:41:38;;;;;;;2.13;1.60;;;;;;;;;;10350877;28;20577;-73
2024/03/14 23:46:42;;;;;;;2.22;1.63;;;;;;;;;;10356741;28;20092;-74
2024/03/14 23:51:45;;;;;;;1.95;1.40;;;;;;;;;;10333586;28;20361;-73
2024/03/14 23:56:48;;;;;;;1.58;1.15;;;;;;;;;;10337511;28;20130;-74
